sensor_id;sensor_type;location;lat;lon;timestamp;P1;durP1;ratioP1;P2;durP2;ratioP2
18174;SDS011;9212;50.894;16.714;2023-06-14T00:02:03;4.83;;;3.50;;
18174;SDS011;9212;50.894;16.714;2023-06-14T00:04:33;3.63;;;3.13;;
18174;SDS011;9212;50.894;16.714;2023-06-14T00:07:03;5.33;;;3.70;;
18174;SDS011;9212;50.894;16.714;2023-06-14T00:09:33;4.87;;;3.07;;
18174;SDS011;9212;50.894;16.714;2023-06-14T00:12:00;4.23;;;2.90;;
18174;SDS011;9212;50.894;16.714;2023-06-14T00:14:27;4.30;;;3.07;;
18174;SDS011;9212;50.894;16.714;2023-06-14T00:16:55;6.10;;;3.17;;
18174;SDS011;9212;50.894;16.714;2023-06-14T00:19:23;5.70;;;3.43;;
18174;SDS011;9212;50.894;16.714;2023-06-14T00:21:51;3.57;;;3.00;;
18174;SDS011;9212;50.894;16.714;2023-06-14T00:24:19;6.13;;;2.87;;
18174;SDS011;9212;50.894;16.714;2023-06-14T00:26:46;4.30;;;3.23;;
18174;SDS011;9212;50.894;16.714;2023-06-14T00:29:13;4.83;;;2.90;;
18174;SDS011;9212;50.894;16.714;2023-06-14T00:31:41;4.93;;;3.73;;
18174;SDS011;9212;50.894;16.714;2023-06-14T00:34:08;3.57;;;2.90;;
18174;SDS011;9212;50.894;16.714;2023-06-14T00:36:35;3.37;;;2.90;;
18174;SDS011;9212;50.894;16.714;2023-06-14T00:39:03;4.03;;;3.00;;
18174;SDS011;9212;50.894;16.714;2023-06-14T00:41:31;4.17;;;3.10;;
18174;SDS011;9212;50.894;16.714;2023-06-14T00:43:58;4.17;;;3.43;;
18174;SDS011;9212;50.894;16.714;2023-06-14T00:46:25;5.20;;;3.50;;
18174;SDS011;9212;50.894;16.714;2023-06-14T00:48:53;4.33;;;3.20;;
18174;SDS011;9212;50.894;16.714;2023-06-14T00:51:21;6.67;;;3.33;;
18174;SDS011;9212;50.894;16.714;2023-06-14T00:53:48;4.03;;;3.10;;
18174;SDS011;9212;50.894;16.714;2023-06-14T00:56:16;3.83;;;3.20;;
18174;SDS011;9212;50.894;16.714;2023-06-14T00:58:47;4.60;;;2.90;;
18174;SDS011;9212;50.894;16.714;2023-06-14T01:01:14;9.17;;;3.37;;
18174;SDS011;9212;50.894;16.714;2023-06-14T01:03:41;4.23;;;3.23;;
18174;SDS011;9212;50.894;16.714;2023-06-14T01:06:18;3.57;;;3.13;;
18174;SDS011;9212;50.894;16.714;2023-06-14T01:08:55;3.23;;;2.87;;
18174;SDS011;9212;50.894;16.714;2023-06-14T01:11:31;3.10;;;2.80;;
18174;SDS011;9212;50.894;16.714;2023-06-14T01:14:03;4.57;;;3.30;;
18174;SDS011;9212;50.894;16.714;2023-06-14T01:16:31;4.73;;;3.10;;
18174;SDS011;9212;50.894;16.714;2023-06-14T01:19:01;4.00;;;2.70;;
18174;SDS011;9212;50.894;16.714;2023-06-14T01:21:28;4.80;;;3.33;;
18174;SDS011;9212;50.894;16.714;2023-06-14T01:23:56;3.57;;;2.90;;
18174;SDS011;9212;50.894;16.714;2023-06-14T01:26:23;6.60;;;2.97;;
18174;SDS011;9212;50.894;16.714;2023-06-14T01:28:51;5.60;;;3.10;;
18174;SDS011;9212;50.894;16.714;2023-06-14T01:31:23;4.13;;;3.17;;
18174;SDS011;9212;50.894;16.714;2023-06-14T01:33:51;7.00;;;3.37;;
18174;SDS011;9212;50.894;16.714;2023-06-14T01:36:19;4.43;;;3.17;;
18174;SDS011;9212;50.894;16.714;2023-06-14T01:38:46;4.43;;;3.33;;
18174;SDS011;9212;50.894;16.714;2023-06-14T01:41:16;5.07;;;3.47;;
18174;SDS011;9212;50.894;16.714;2023-06-14T01:43:44;8.33;;;3.57;;
18174;SDS011;9212;50.894;16.714;2023-06-14T01:46:13;5.00;;;3.40;;
18174;SDS011;9212;50.894;16.714;2023-06-14T01:48:41;4.27;;;3.30;;
18174;SDS011;9212;50.894;16.714;2023-06-14T01:51:09;5.10;;;3.40;;
18174;SDS011;9212;50.894;16.714;2023-06-14T01:53:36;7.67;;;3.60;;
18174;SDS011;9212;50.894;16.714;2023-06-14T01:56:03;4.23;;;3.77;;
18174;SDS011;9212;50.894;16.714;2023-06-14T01:58:32;4.80;;;3.60;;
18174;SDS011;9212;50.894;16.714;2023-06-14T02:01:01;4.67;;;3.13;;
18174;SDS011;9212;50.894;16.714;2023-06-14T02:03:28;6.37;;;3.67;;
18174;SDS011;9212;50.894;16.714;2023-06-14T02:05:55;4.43;;;3.20;;
18174;SDS011;9212;50.894;16.714;2023-06-14T02:08:22;4.50;;;3.30;;
18174;SDS011;9212;50.894;16.714;2023-06-14T02:10:50;6.70;;;4.00;;
18174;SDS011;9212;50.894;16.714;2023-06-14T02:13:25;5.87;;;4.00;;
18174;SDS011;9212;50.894;16.714;2023-06-14T02:15:56;4.90;;;3.53;;
18174;SDS011;9212;50.894;16.714;2023-06-14T02:18:22;4.83;;;3.83;;
18174;SDS011;9212;50.894;16.714;2023-06-14T02:20:50;4.87;;;3.80;;
18174;SDS011;9212;50.894;16.714;2023-06-14T02:23:17;7.87;;;4.33;;
18174;SDS011;9212;50.894;16.714;2023-06-14T02:25:44;4.03;;;3.63;;
18174;SDS011;9212;50.894;16.714;2023-06-14T02:28:11;6.83;;;4.20;;
18174;SDS011;9212;50.894;16.714;2023-06-14T02:30:38;7.07;;;4.10;;
18174;SDS011;9212;50.894;16.714;2023-06-14T02:33:07;5.97;;;4.03;;
18174;SDS011;9212;50.894;16.714;2023-06-14T02:35:37;6.30;;;3.80;;
18174;SDS011;9212;50.894;16.714;2023-06-14T02:38:04;5.60;;;3.77;;
18174;SDS011;9212;50.894;16.714;2023-06-14T02:40:32;4.70;;;3.43;;
18174;SDS011;9212;50.894;16.714;2023-06-14T02:42:59;8.50;;;4.10;;
18174;SDS011;9212;50.894;16.714;2023-06-14T02:45:27;6.17;;;4.53;;
18174;SDS011;9212;50.894;16.714;2023-06-14T02:47:53;6.80;;;4.17;;
18174;SDS011;9212;50.894;16.714;2023-06-14T02:50:23;6.33;;;4.10;;
18174;SDS011;9212;50.894;16.714;2023-06-14T02:52:53;5.03;;;4.17;;
18174;SDS011;9212;50.894;16.714;2023-06-14T02:55:22;6.60;;;4.90;;
18174;SDS011;9212;50.894;16.714;2023-06-14T02:57:49;4.60;;;4.13;;
18174;SDS011;9212;50.894;16.714;2023-06-14T03:00:18;10.93;;;4.87;;
18174;SDS011;9212;50.894;16.714;2023-06-14T03:02:45;6.90;;;4.63;;
18174;SDS011;9212;50.894;16.714;2023-06-14T03:05:13;8.80;;;4.50;;
18174;SDS011;9212;50.894;16.714;2023-06-14T03:07:41;5.00;;;4.03;;
18174;SDS011;9212;50.894;16.714;2023-06-14T03:10:10;5.80;;;3.77;;
18174;SDS011;9212;50.894;16.714;2023-06-14T03:12:38;6.57;;;4.27;;
18174;SDS011;9212;50.894;16.714;2023-06-14T03:15:05;5.97;;;4.03;;
18174;SDS011;9212;50.894;16.714;2023-06-14T03:17:34;6.20;;;4.73;;
18174;SDS011;9212;50.894;16.714;2023-06-14T03:20:04;7.90;;;4.50;;
18174;SDS011;9212;50.894;16.714;2023-06-14T03:22:33;6.50;;;4.33;;
18174;SDS011;9212;50.894;16.714;2023-06-14T03:25:01;6.77;;;4.23;;
18174;SDS011;9212;50.894;16.714;2023-06-14T03:27:30;8.00;;;3.97;;
18174;SDS011;9212;50.894;16.714;2023-06-14T03:29:57;4.90;;;4.03;;
18174;SDS011;9212;50.894;16.714;2023-06-14T03:32:24;8.17;;;4.37;;
18174;SDS011;9212;50.894;16.714;2023-06-14T03:34:51;7.80;;;4.10;;
18174;SDS011;9212;50.894;16.714;2023-06-14T03:37:19;5.80;;;4.03;;
18174;SDS011;9212;50.894;16.714;2023-06-14T03:39:46;10.40;;;4.60;;
18174;SDS011;9212;50.894;16.714;2023-06-14T03:42:14;6.50;;;4.63;;
18174;SDS011;9212;50.894;16.714;2023-06-14T03:44:41;7.27;;;4.50;;
18174;SDS011;9212;50.894;16.714;2023-06-14T03:47:09;6.87;;;3.97;;
18174;SDS011;9212;50.894;16.714;2023-06-14T03:49:36;6.63;;;4.47;;
18174;SDS011;9212;50.894;16.714;2023-06-14T03:52:04;4.93;;;3.73;;
18174;SDS011;9212;50.894;16.714;2023-06-14T03:54:31;6.37;;;4.30;;
18174;SDS011;9212;50.894;16.714;2023-06-14T03:56:58;5.43;;;4.00;;
18174;SDS011;9212;50.894;16.714;2023-06-14T03:59:27;7.97;;;4.37;;
18174;SDS011;9212;50.894;16.714;2023-06-14T04:01:54;5.87;;;3.93;;
18174;SDS011;9212;50.894;16.714;2023-06-14T04:04:21;5.23;;;3.83;;
18174;SDS011;9212;50.894;16.714;2023-06-14T04:06:54;5.07;;;4.23;;
18174;SDS011;9212;50.894;16.714;2023-06-14T04:09:23;5.53;;;3.73;;
18174;SDS011;9212;50.894;16.714;2023-06-14T04:11:51;6.40;;;3.90;;
18174;SDS011;9212;50.894;16.714;2023-06-14T04:14:35;6.33;;;4.10;;
18174;SDS011;9212;50.894;16.714;2023-06-14T04:17:04;6.10;;;3.70;;
18174;SDS011;9212;50.894;16.714;2023-06-14T04:19:31;5.90;;;4.37;;
18174;SDS011;9212;50.894;16.714;2023-06-14T04:21:58;4.23;;;3.50;;
18174;SDS011;9212;50.894;16.714;2023-06-14T04:24:26;5.67;;;4.23;;
18174;SDS011;9212;50.894;16.714;2023-06-14T04:26:57;7.47;;;4.10;;
18174;SDS011;9212;50.894;16.714;2023-06-14T04:29:26;5.80;;;4.40;;
18174;SDS011;9212;50.894;16.714;2023-06-14T04:31:56;5.07;;;4.40;;
18174;SDS011;9212;50.894;16.714;2023-06-14T04:34:25;5.43;;;4.07;;
18174;SDS011;9212;50.894;16.714;2023-06-14T04:36:54;5.40;;;4.23;;
18174;SDS011;9212;50.894;16.714;2023-06-14T04:39:23;7.83;;;4.23;;
18174;SDS011;9212;50.894;16.714;2023-06-14T04:41:51;5.47;;;4.33;;
18174;SDS011;9212;50.894;16.714;2023-06-14T04:44:21;6.80;;;4.70;;
18174;SDS011;9212;50.894;16.714;2023-06-14T04:46:56;6.43;;;4.70;;
18174;SDS011;9212;50.894;16.714;2023-06-14T04:49:23;7.63;;;4.83;;
18174;SDS011;9212;50.894;16.714;2023-06-14T04:51:51;11.27;;;4.70;;
18174;SDS011;9212;50.894;16.714;2023-06-14T04:54:24;6.67;;;4.90;;
18174;SDS011;9212;50.894;16.714;2023-06-14T04:56:51;9.63;;;5.37;;
18174;SDS011;9212;50.894;16.714;2023-06-14T04:59:20;8.33;;;5.50;;
18174;SDS011;9212;50.894;16.714;2023-06-14T05:01:48;8.17;;;4.93;;
18174;SDS011;9212;50.894;16.714;2023-06-14T05:04:16;7.87;;;5.83;;
18174;SDS011;9212;50.894;16.714;2023-06-14T05:06:44;9.40;;;5.83;;
18174;SDS011;9212;50.894;16.714;2023-06-14T05:09:13;7.80;;;6.07;;
18174;SDS011;9212;50.894;16.714;2023-06-14T05:11:40;8.73;;;6.23;;
18174;SDS011;9212;50.894;16.714;2023-06-14T05:14:09;14.10;;;7.10;;
18174;SDS011;9212;50.894;16.714;2023-06-14T05:16:36;11.53;;;7.20;;
18174;SDS011;9212;50.894;16.714;2023-06-14T05:19:04;8.73;;;6.73;;
18174;SDS011;9212;50.894;16.714;2023-06-14T05:21:32;9.57;;;6.50;;
18174;SDS011;9212;50.894;16.714;2023-06-14T05:23:59;9.33;;;6.17;;
18174;SDS011;9212;50.894;16.714;2023-06-14T05:26:27;9.50;;;6.97;;
18174;SDS011;9212;50.894;16.714;2023-06-14T05:28:54;12.10;;;7.07;;
18174;SDS011;9212;50.894;16.714;2023-06-14T05:31:21;7.67;;;6.03;;
18174;SDS011;9212;50.894;16.714;2023-06-14T05:33:49;8.93;;;6.03;;
18174;SDS011;9212;50.894;16.714;2023-06-14T05:36:16;8.03;;;5.90;;
18174;SDS011;9212;50.894;16.714;2023-06-14T05:38:45;7.20;;;5.53;;
18174;SDS011;9212;50.894;16.714;2023-06-14T05:41:12;8.37;;;6.00;;
18174;SDS011;9212;50.894;16.714;2023-06-14T05:43:39;11.03;;;6.10;;
18174;SDS011;9212;50.894;16.714;2023-06-14T05:46:06;7.97;;;5.57;;
18174;SDS011;9212;50.894;16.714;2023-06-14T05:48:33;8.80;;;5.53;;
18174;SDS011;9212;50.894;16.714;2023-06-14T05:51:01;8.13;;;6.63;;
18174;SDS011;9212;50.894;16.714;2023-06-14T05:53:28;9.40;;;6.30;;
18174;SDS011;9212;50.894;16.714;2023-06-14T05:55:57;8.07;;;5.87;;
18174;SDS011;9212;50.894;16.714;2023-06-14T05:58:23;7.73;;;5.50;;
18174;SDS011;9212;50.894;16.714;2023-06-14T06:00:51;13.23;;;7.10;;
18174;SDS011;9212;50.894;16.714;2023-06-14T06:03:18;15.77;;;6.37;;
18174;SDS011;9212;50.894;16.714;2023-06-14T06:05:46;8.07;;;5.67;;
18174;SDS011;9212;50.894;16.714;2023-06-14T06:08:13;7.33;;;5.47;;
18174;SDS011;9212;50.894;16.714;2023-06-14T06:10:41;9.67;;;5.77;;
18174;SDS011;9212;50.894;16.714;2023-06-14T06:13:10;9.00;;;5.83;;
18174;SDS011;9212;50.894;16.714;2023-06-14T06:15:37;6.97;;;5.17;;
18174;SDS011;9212;50.894;16.714;2023-06-14T06:18:04;8.77;;;5.63;;
18174;SDS011;9212;50.894;16.714;2023-06-14T06:20:31;9.83;;;5.27;;
18174;SDS011;9212;50.894;16.714;2023-06-14T06:22:59;7.93;;;5.20;;
18174;SDS011;9212;50.894;16.714;2023-06-14T06:25:26;6.83;;;5.30;;
18174;SDS011;9212;50.894;16.714;2023-06-14T06:27:54;7.40;;;5.57;;
18174;SDS011;9212;50.894;16.714;2023-06-14T06:30:23;7.60;;;5.00;;
18174;SDS011;9212;50.894;16.714;2023-06-14T06:32:52;6.70;;;4.83;;
18174;SDS011;9212;50.894;16.714;2023-06-14T06:35:20;7.13;;;4.30;;
18174;SDS011;9212;50.894;16.714;2023-06-14T06:37:47;9.80;;;5.03;;
18174;SDS011;9212;50.894;16.714;2023-06-14T06:40:14;8.37;;;4.93;;
18174;SDS011;9212;50.894;16.714;2023-06-14T06:42:41;7.87;;;4.83;;
18174;SDS011;9212;50.894;16.714;2023-06-14T06:45:08;11.87;;;5.17;;
18174;SDS011;9212;50.894;16.714;2023-06-14T06:47:37;10.67;;;5.73;;
18174;SDS011;9212;50.894;16.714;2023-06-14T06:50:04;8.87;;;5.67;;
18174;SDS011;9212;50.894;16.714;2023-06-14T06:52:32;10.27;;;5.80;;
18174;SDS011;9212;50.894;16.714;2023-06-14T06:55:00;12.07;;;6.00;;
18174;SDS011;9212;50.894;16.714;2023-06-14T06:57:28;8.93;;;6.10;;
18174;SDS011;9212;50.894;16.714;2023-06-14T06:59:55;9.50;;;5.53;;
18174;SDS011;9212;50.894;16.714;2023-06-14T07:02:22;11.77;;;5.70;;
18174;SDS011;9212;50.894;16.714;2023-06-14T07:04:50;10.43;;;5.40;;
18174;SDS011;9212;50.894;16.714;2023-06-14T07:07:17;10.50;;;5.88;;
18174;SDS011;9212;50.894;16.714;2023-06-14T07:09:45;11.18;;;5.13;;
18174;SDS011;9212;50.894;16.714;2023-06-14T07:12:12;7.35;;;4.90;;
18174;SDS011;9212;50.894;16.714;2023-06-14T07:14:39;8.30;;;5.25;;
18174;SDS011;9212;50.894;16.714;2023-06-14T07:17:06;6.22;;;4.70;;
18174;SDS011;9212;50.894;16.714;2023-06-14T07:19:33;9.38;;;5.15;;
18174;SDS011;9212;50.894;16.714;2023-06-14T07:22:01;9.10;;;5.35;;
18174;SDS011;9212;50.894;16.714;2023-06-14T07:24:29;17.60;;;5.63;;
18174;SDS011;9212;50.894;16.714;2023-06-14T07:26:55;10.13;;;5.55;;
18174;SDS011;9212;50.894;16.714;2023-06-14T07:29:22;12.00;;;5.03;;
18174;SDS011;9212;50.894;16.714;2023-06-14T07:31:49;7.57;;;5.65;;
18174;SDS011;9212;50.894;16.714;2023-06-14T07:34:16;14.25;;;5.65;;
18174;SDS011;9212;50.894;16.714;2023-06-14T07:36:43;9.32;;;5.10;;
18174;SDS011;9212;50.894;16.714;2023-06-14T07:39:12;6.90;;;4.40;;
18174;SDS011;9212;50.894;16.714;2023-06-14T07:41:39;12.25;;;5.20;;
18174;SDS011;9212;50.894;16.714;2023-06-14T07:44:06;11.02;;;5.90;;
18174;SDS011;9212;50.894;16.714;2023-06-14T07:46:33;11.77;;;6.03;;
18174;SDS011;9212;50.894;16.714;2023-06-14T07:49:00;8.77;;;5.88;;
18174;SDS011;9212;50.894;16.714;2023-06-14T07:51:27;12.95;;;6.90;;
18174;SDS011;9212;50.894;16.714;2023-06-14T07:53:54;6.93;;;5.60;;
18174;SDS011;9212;50.894;16.714;2023-06-14T07:56:22;9.38;;;5.60;;
18174;SDS011;9212;50.894;16.714;2023-06-14T07:58:49;9.93;;;6.13;;
18174;SDS011;9212;50.894;16.714;2023-06-14T08:01:17;15.32;;;5.80;;
18174;SDS011;9212;50.894;16.714;2023-06-14T08:03:45;10.80;;;5.78;;
18174;SDS011;9212;50.894;16.714;2023-06-14T08:06:12;12.80;;;6.15;;
18174;SDS011;9212;50.894;16.714;2023-06-14T08:08:39;9.70;;;6.25;;
18174;SDS011;9212;50.894;16.714;2023-06-14T08:11:06;14.13;;;7.57;;
18174;SDS011;9212;50.894;16.714;2023-06-14T08:13:35;13.30;;;7.38;;
18174;SDS011;9212;50.894;16.714;2023-06-14T08:16:02;11.55;;;7.90;;
18174;SDS011;9212;50.894;16.714;2023-06-14T08:18:30;20.50;;;7.53;;
18174;SDS011;9212;50.894;16.714;2023-06-14T08:20:57;18.55;;;7.38;;
18174;SDS011;9212;50.894;16.714;2023-06-14T08:23:24;10.63;;;6.38;;
18174;SDS011;9212;50.894;16.714;2023-06-14T08:25:52;10.95;;;6.63;;
18174;SDS011;9212;50.894;16.714;2023-06-14T08:28:19;10.80;;;7.18;;
18174;SDS011;9212;50.894;16.714;2023-06-14T08:30:48;11.15;;;7.32;;
18174;SDS011;9212;50.894;16.714;2023-06-14T08:33:14;10.80;;;7.70;;
18174;SDS011;9212;50.894;16.714;2023-06-14T08:35:41;11.50;;;8.02;;
18174;SDS011;9212;50.894;16.714;2023-06-14T08:38:09;12.73;;;7.50;;
18174;SDS011;9212;50.894;16.714;2023-06-14T08:40:37;11.23;;;8.00;;
18174;SDS011;9212;50.894;16.714;2023-06-14T08:43:04;11.40;;;8.20;;
18174;SDS011;9212;50.894;16.714;2023-06-14T08:45:32;10.80;;;7.30;;
18174;SDS011;9212;50.894;16.714;2023-06-14T08:48:01;19.77;;;7.35;;
18174;SDS011;9212;50.894;16.714;2023-06-14T08:50:28;10.73;;;7.85;;
18174;SDS011;9212;50.894;16.714;2023-06-14T08:52:56;11.68;;;7.65;;
18174;SDS011;9212;50.894;16.714;2023-06-14T08:55:25;11.68;;;8.05;;
18174;SDS011;9212;50.894;16.714;2023-06-14T08:57:54;10.93;;;8.43;;
18174;SDS011;9212;50.894;16.714;2023-06-14T09:00:23;12.68;;;8.55;;
18174;SDS011;9212;50.894;16.714;2023-06-14T09:02:51;10.23;;;7.07;;
18174;SDS011;9212;50.894;16.714;2023-06-14T09:05:24;13.00;;;7.93;;
18174;SDS011;9212;50.894;16.714;2023-06-14T09:07:51;11.15;;;7.50;;
18174;SDS011;9212;50.894;16.714;2023-06-14T09:10:20;11.27;;;7.32;;
18174;SDS011;9212;50.894;16.714;2023-06-14T09:12:48;10.32;;;7.45;;
18174;SDS011;9212;50.894;16.714;2023-06-14T09:15:15;15.25;;;7.57;;
18174;SDS011;9212;50.894;16.714;2023-06-14T09:17:42;11.75;;;7.78;;
18174;SDS011;9212;50.894;16.714;2023-06-14T09:20:10;15.63;;;8.10;;
18174;SDS011;9212;50.894;16.714;2023-06-14T09:22:44;12.10;;;7.28;;
18174;SDS011;9212;50.894;16.714;2023-06-14T09:25:12;10.63;;;7.57;;
18174;SDS011;9212;50.894;16.714;2023-06-14T09:27:40;9.73;;;7.57;;
18174;SDS011;9212;50.894;16.714;2023-06-14T09:30:08;11.18;;;7.18;;
18174;SDS011;9212;50.894;16.714;2023-06-14T09:32:36;8.10;;;6.25;;
18174;SDS011;9212;50.894;16.714;2023-06-14T09:35:05;10.63;;;6.97;;
18174;SDS011;9212;50.894;16.714;2023-06-14T09:37:33;8.27;;;6.10;;
18174;SDS011;9212;50.894;16.714;2023-06-14T09:40:02;9.18;;;6.05;;
18174;SDS011;9212;50.894;16.714;2023-06-14T09:42:30;15.18;;;6.82;;
18174;SDS011;9212;50.894;16.714;2023-06-14T09:45:00;9.27;;;6.07;;
18174;SDS011;9212;50.894;16.714;2023-06-14T09:47:29;7.85;;;6.05;;
18174;SDS011;9212;50.894;16.714;2023-06-14T09:49:56;9.07;;;6.72;;
18174;SDS011;9212;50.894;16.714;2023-06-14T09:52:24;10.68;;;6.40;;
18174;SDS011;9212;50.894;16.714;2023-06-14T09:54:51;7.80;;;5.82;;
18174;SDS011;9212;50.894;16.714;2023-06-14T09:57:22;10.77;;;6.18;;
18174;SDS011;9212;50.894;16.714;2023-06-14T09:59:52;12.25;;;7.00;;
18174;SDS011;9212;50.894;16.714;2023-06-14T10:02:24;10.93;;;6.97;;
18174;SDS011;9212;50.894;16.714;2023-06-14T10:04:55;7.95;;;6.45;;
18174;SDS011;9212;50.894;16.714;2023-06-14T10:07:32;8.40;;;6.40;;
18174;SDS011;9212;50.894;16.714;2023-06-14T10:10:01;9.10;;;6.38;;
18174;SDS011;9212;50.894;16.714;2023-06-14T10:12:30;7.22;;;6.00;;
18174;SDS011;9212;50.894;16.714;2023-06-14T10:14:57;8.40;;;6.90;;
18174;SDS011;9212;50.894;16.714;2023-06-14T10:17:27;8.18;;;6.75;;
18174;SDS011;9212;50.894;16.714;2023-06-14T10:20:06;9.40;;;6.57;;
18174;SDS011;9212;50.894;16.714;2023-06-14T10:22:43;9.15;;;6.32;;
18174;SDS011;9212;50.894;16.714;2023-06-14T10:25:25;9.23;;;6.63;;
18174;SDS011;9212;50.894;16.714;2023-06-14T10:28:03;8.13;;;5.78;;
18174;SDS011;9212;50.894;16.714;2023-06-14T10:30:43;6.00;;;5.22;;
18174;SDS011;9212;50.894;16.714;2023-06-14T10:33:29;8.70;;;5.90;;
18174;SDS011;9212;50.894;16.714;2023-06-14T10:36:06;6.60;;;4.82;;
18174;SDS011;9212;50.894;16.714;2023-06-14T10:38:34;7.80;;;5.15;;
18174;SDS011;9212;50.894;16.714;2023-06-14T10:41:03;7.28;;;4.50;;
18174;SDS011;9212;50.894;16.714;2023-06-14T10:43:33;5.57;;;4.47;;
18174;SDS011;9212;50.894;16.714;2023-06-14T10:46:15;6.10;;;4.60;;
18174;SDS011;9212;50.894;16.714;2023-06-14T10:48:43;6.57;;;4.75;;
18174;SDS011;9212;50.894;16.714;2023-06-14T10:51:17;6.95;;;4.65;;
18174;SDS011;9212;50.894;16.714;2023-06-14T10:53:46;5.63;;;4.20;;
18174;SDS011;9212;50.894;16.714;2023-06-14T10:56:23;4.88;;;4.00;;
18174;SDS011;9212;50.894;16.714;2023-06-14T10:58:55;7.35;;;4.75;;
18174;SDS011;9212;50.894;16.714;2023-06-14T11:01:26;7.93;;;5.38;;
18174;SDS011;9212;50.894;16.714;2023-06-14T11:04:06;5.70;;;4.53;;
18174;SDS011;9212;50.894;16.714;2023-06-14T11:06:40;7.50;;;4.25;;
18174;SDS011;9212;50.894;16.714;2023-06-14T11:09:21;6.72;;;5.03;;
18174;SDS011;9212;50.894;16.714;2023-06-14T11:12:07;6.57;;;4.80;;
18174;SDS011;9212;50.894;16.714;2023-06-14T11:14:38;7.70;;;4.40;;
18174;SDS011;9212;50.894;16.714;2023-06-14T11:17:05;6.47;;;4.55;;
18174;SDS011;9212;50.894;16.714;2023-06-14T11:19:33;5.63;;;4.20;;
18174;SDS011;9212;50.894;16.714;2023-06-14T11:22:01;5.38;;;3.92;;
18174;SDS011;9212;50.894;16.714;2023-06-14T11:24:28;7.05;;;4.65;;
18174;SDS011;9212;50.894;16.714;2023-06-14T11:26:55;7.85;;;5.28;;
18174;SDS011;9212;50.894;16.714;2023-06-14T11:29:32;6.75;;;4.60;;
18174;SDS011;9212;50.894;16.714;2023-06-14T11:32:47;6.35;;;4.60;;
18174;SDS011;9212;50.894;16.714;2023-06-14T11:35:15;7.00;;;4.78;;
18174;SDS011;9212;50.894;16.714;2023-06-14T11:37:42;10.07;;;5.13;;
18174;SDS011;9212;50.894;16.714;2023-06-14T11:40:10;9.43;;;4.85;;
18174;SDS011;9212;50.894;16.714;2023-06-14T11:42:39;6.75;;;4.53;;
18174;SDS011;9212;50.894;16.714;2023-06-14T11:45:08;6.40;;;4.72;;
18174;SDS011;9212;50.894;16.714;2023-06-14T11:47:36;4.93;;;4.22;;
18174;SDS011;9212;50.894;16.714;2023-06-14T11:50:06;6.07;;;4.00;;
18174;SDS011;9212;50.894;16.714;2023-06-14T11:52:35;4.93;;;3.63;;
18174;SDS011;9212;50.894;16.714;2023-06-14T11:55:03;9.25;;;4.35;;
18174;SDS011;9212;50.894;16.714;2023-06-14T11:57:33;6.15;;;4.00;;
18174;SDS011;9212;50.894;16.714;2023-06-14T12:00:03;4.13;;;3.58;;
18174;SDS011;9212;50.894;16.714;2023-06-14T12:02:32;6.30;;;4.95;;
18174;SDS011;9212;50.894;16.714;2023-06-14T12:05:04;6.53;;;4.30;;
18174;SDS011;9212;50.894;16.714;2023-06-14T12:07:34;7.72;;;4.85;;
18174;SDS011;9212;50.894;16.714;2023-06-14T12:10:06;6.03;;;4.68;;
18174;SDS011;9212;50.894;16.714;2023-06-14T12:15:11;5.90;;;4.50;;
18174;SDS011;9212;50.894;16.714;2023-06-14T12:17:38;8.40;;;4.07;;
18174;SDS011;9212;50.894;16.714;2023-06-14T12:20:09;6.57;;;3.90;;
18174;SDS011;9212;50.894;16.714;2023-06-14T12:22:39;6.60;;;4.22;;
18174;SDS011;9212;50.894;16.714;2023-06-14T12:25:22;8.52;;;4.28;;
18174;SDS011;9212;50.894;16.714;2023-06-14T12:27:52;6.03;;;3.45;;
18174;SDS011;9212;50.894;16.714;2023-06-14T12:30:20;7.55;;;3.70;;
18174;SDS011;9212;50.894;16.714;2023-06-14T12:32:47;5.00;;;2.70;;
18174;SDS011;9212;50.894;16.714;2023-06-14T12:35:18;5.95;;;3.10;;
18174;SDS011;9212;50.894;16.714;2023-06-14T12:37:45;3.85;;;2.78;;
18174;SDS011;9212;50.894;16.714;2023-06-14T12:40:12;3.95;;;2.80;;
18174;SDS011;9212;50.894;16.714;2023-06-14T12:42:40;3.63;;;2.60;;
18174;SDS011;9212;50.894;16.714;2023-06-14T12:45:07;4.05;;;2.78;;
18174;SDS011;9212;50.894;16.714;2023-06-14T12:47:35;4.18;;;2.60;;
18174;SDS011;9212;50.894;16.714;2023-06-14T12:50:02;5.15;;;2.88;;
18174;SDS011;9212;50.894;16.714;2023-06-14T12:52:31;3.13;;;2.65;;
18174;SDS011;9212;50.894;16.714;2023-06-14T12:55:01;5.72;;;3.05;;
18174;SDS011;9212;50.894;16.714;2023-06-14T12:57:29;3.92;;;2.95;;
18174;SDS011;9212;50.894;16.714;2023-06-14T12:59:56;5.63;;;3.53;;
18174;SDS011;9212;50.894;16.714;2023-06-14T13:02:23;7.53;;;3.58;;
18174;SDS011;9212;50.894;16.714;2023-06-14T13:04:50;4.78;;;3.40;;
18174;SDS011;9212;50.894;16.714;2023-06-14T13:07:18;3.92;;;3.25;;
18174;SDS011;9212;50.894;16.714;2023-06-14T13:09:46;7.80;;;3.35;;
18174;SDS011;9212;50.894;16.714;2023-06-14T13:12:13;19.25;;;3.40;;
18174;SDS011;9212;50.894;16.714;2023-06-14T13:14:40;3.72;;;3.00;;
18174;SDS011;9212;50.894;16.714;2023-06-14T13:17:07;7.03;;;3.00;;
18174;SDS011;9212;50.894;16.714;2023-06-14T13:19:35;3.47;;;2.88;;
18174;SDS011;9212;50.894;16.714;2023-06-14T13:22:02;15.40;;;3.33;;
18174;SDS011;9212;50.894;16.714;2023-06-14T13:24:30;4.45;;;3.13;;
18174;SDS011;9212;50.894;16.714;2023-06-14T13:26:58;3.50;;;2.78;;
18174;SDS011;9212;50.894;16.714;2023-06-14T13:29:25;7.20;;;2.80;;
18174;SDS011;9212;50.894;16.714;2023-06-14T13:31:53;4.38;;;3.30;;
18174;SDS011;9212;50.894;16.714;2023-06-14T13:34:20;5.00;;;3.30;;
18174;SDS011;9212;50.894;16.714;2023-06-14T13:36:48;8.75;;;3.80;;
18174;SDS011;9212;50.894;16.714;2023-06-14T13:39:16;4.68;;;3.75;;
18174;SDS011;9212;50.894;16.714;2023-06-14T13:41:43;4.90;;;3.75;;
18174;SDS011;9212;50.894;16.714;2023-06-14T13:44:12;5.55;;;3.33;;
18174;SDS011;9212;50.894;16.714;2023-06-14T13:46:41;5.13;;;4.00;;
18174;SDS011;9212;50.894;16.714;2023-06-14T13:49:09;6.20;;;4.00;;
18174;SDS011;9212;50.894;16.714;2023-06-14T13:51:37;4.22;;;3.78;;
18174;SDS011;9212;50.894;16.714;2023-06-14T13:54:04;6.53;;;3.70;;
18174;SDS011;9212;50.894;16.714;2023-06-14T13:56:31;4.82;;;3.60;;
18174;SDS011;9212;50.894;16.714;2023-06-14T13:58:58;4.45;;;3.58;;
18174;SDS011;9212;50.894;16.714;2023-06-14T14:01:27;3.80;;;3.28;;
18174;SDS011;9212;50.894;16.714;2023-06-14T14:03:55;4.32;;;3.30;;
18174;SDS011;9212;50.894;16.714;2023-06-14T14:06:23;6.57;;;3.83;;
18174;SDS011;9212;50.894;16.714;2023-06-14T14:08:50;6.32;;;3.40;;
18174;SDS011;9212;50.894;16.714;2023-06-14T14:11:17;4.97;;;3.78;;
18174;SDS011;9212;50.894;16.714;2023-06-14T14:13:45;4.88;;;3.75;;
18174;SDS011;9212;50.894;16.714;2023-06-14T14:16:13;6.18;;;3.72;;
18174;SDS011;9212;50.894;16.714;2023-06-14T14:18:41;5.93;;;3.67;;
18174;SDS011;9212;50.894;16.714;2023-06-14T14:21:08;7.18;;;4.20;;
18174;SDS011;9212;50.894;16.714;2023-06-14T14:23:35;4.13;;;3.30;;
18174;SDS011;9212;50.894;16.714;2023-06-14T14:26:03;5.93;;;3.90;;
18174;SDS011;9212;50.894;16.714;2023-06-14T14:28:30;6.68;;;3.80;;
18174;SDS011;9212;50.894;16.714;2023-06-14T14:30:57;7.80;;;3.72;;
18174;SDS011;9212;50.894;16.714;2023-06-14T14:33:25;4.07;;;3.67;;
18174;SDS011;9212;50.894;16.714;2023-06-14T14:35:53;7.22;;;3.95;;
18174;SDS011;9212;50.894;16.714;2023-06-14T14:38:20;8.98;;;3.95;;
18174;SDS011;9212;50.894;16.714;2023-06-14T14:40:48;6.85;;;3.47;;
18174;SDS011;9212;50.894;16.714;2023-06-14T14:43:15;4.03;;;3.25;;
18174;SDS011;9212;50.894;16.714;2023-06-14T14:45:42;4.05;;;2.83;;
18174;SDS011;9212;50.894;16.714;2023-06-14T14:48:09;6.25;;;3.40;;
18174;SDS011;9212;50.894;16.714;2023-06-14T14:50:36;4.03;;;3.00;;
18174;SDS011;9212;50.894;16.714;2023-06-14T14:53:04;4.05;;;2.65;;
18174;SDS011;9212;50.894;16.714;2023-06-14T14:57:59;4.93;;;3.08;;
18174;SDS011;9212;50.894;16.714;2023-06-14T15:00:27;10.18;;;3.28;;